createdAt,value
2022-11-25T00:01:33.161Z,97092.59
2022-11-25T00:04:01.626Z,97095.20
2022-11-25T00:06:32.558Z,97095.47
2022-11-25T00:09:06.712Z,97094.72
2022-11-25T00:11:42.966Z,97092.30
2022-11-25T00:14:14.572Z,97096.53
2022-11-25T00:16:48.041Z,97095.47
2022-11-25T00:19:12.311Z,97096.27
2022-11-25T00:21:40.431Z,97101.28
2022-11-25T00:24:08.288Z,97100.22
2022-11-25T00:26:36.747Z,97106.61
2022-11-25T00:29:07.737Z,97109.54
2022-11-25T00:31:39.435Z,97110.59
2022-11-25T00:34:07.510Z,97112.75
2022-11-25T00:36:37.608Z,97111.14
2022-11-25T00:39:12.794Z,97110.59
2022-11-25T00:41:59.368Z,97109.27
2022-11-25T00:44:38.119Z,97111.41
2022-11-25T00:47:16.013Z,97118.86
2022-11-25T00:49:51.201Z,97115.92
2022-11-25T00:52:25.780Z,97119.13
2022-11-25T00:54:54.244Z,97114.59
2022-11-25T00:57:23.709Z,97117.80
2022-11-25T00:59:51.705Z,97121.55
2022-11-25T01:02:21.772Z,97122.36
2022-11-25T01:04:49.890Z,97126.90
2022-11-25T01:07:18.649Z,97124.54
2022-11-25T01:09:47.537Z,97129.59
2022-11-25T01:12:15.316Z,97131.47
2022-11-25T01:14:42.830Z,97130.68
2022-11-25T01:17:10.519Z,97132.55
2022-11-25T01:19:39.785Z,97133.09
2022-11-25T01:22:09.565Z,97138.42
2022-11-25T01:24:37.789Z,97138.97
2022-11-25T01:27:05.760Z,97137.33
2022-11-25T01:29:33.380Z,97140.23
2022-11-25T01:32:01.192Z,97136.30
2022-11-25T01:34:30.730Z,97135.52
2022-11-25T01:36:58.633Z,97136.03
2022-11-25T01:39:32.536Z,97137.12
2022-11-25T01:41:57.448Z,97140.63
2022-11-25T01:44:28.379Z,97136.90
2022-11-25T01:47:23.099Z,97135.81
2022-11-25T01:49:59.737Z,97138.23
2022-11-25T01:52:35.424Z,97141.19
2022-11-25T01:55:22.933Z,97145.78
2022-11-25T01:58:01.679Z,97144.75
2022-11-25T02:00:29.476Z,97149.53
2022-11-25T02:02:58.963Z,97152.44
2022-11-25T02:05:44.624Z,97154.55
2022-11-25T02:08:12.965Z,97156.97
2022-11-25T02:10:42.183Z,97151.89
2022-11-25T02:13:11.278Z,97164.38
2022-11-25T02:15:39.055Z,97155.34
2022-11-25T02:18:07.258Z,97167.86
2022-11-25T02:20:35.832Z,97166.25
2022-11-25T02:23:25.215Z,97164.38
2022-11-25T02:25:55.053Z,97167.28
2022-11-25T02:28:27.137Z,97169.92
2022-11-25T02:30:55.099Z,97171.25
2022-11-25T02:33:24.611Z,97169.38
2022-11-25T02:35:58.990Z,97174.95
2022-11-25T02:38:41.378Z,97182.66
2022-11-25T02:41:17.955Z,97181.57
2022-11-25T02:43:47.758Z,97182.36
2022-11-25T02:46:22.268Z,97185.27
2022-11-25T02:51:22.185Z,97187.92
2022-11-25T02:53:51.455Z,97188.01
2022-11-25T02:56:24.209Z,97187.77
2022-11-25T02:58:52.146Z,97192.30
2022-11-25T03:03:50.112Z,97193.36
2022-11-25T03:06:18.072Z,97189.41
2022-11-25T03:08:45.959Z,97188.09
2022-11-25T03:11:14.010Z,97192.89
2022-11-25T03:13:42.006Z,97198.53
2022-11-25T03:16:10.281Z,97199.64
2022-11-25T03:18:38.188Z,97202.57
2022-11-25T03:21:07.078Z,97206.02
2022-11-25T03:23:35.842Z,97209.50
2022-11-25T03:26:07.410Z,97208.41
2022-11-25T03:28:35.270Z,97212.11
2022-11-25T03:31:04.424Z,97213.44
2022-11-25T03:33:32.300Z,97214.77
2022-11-25T03:36:00.093Z,97215.04
2022-11-25T03:38:27.873Z,97214.52
2022-11-25T03:40:55.702Z,97216.09
2022-11-25T03:43:23.437Z,97221.72
2022-11-25T03:45:52.176Z,97216.94
2022-11-25T03:48:19.838Z,97223.06
2022-11-25T03:50:49.027Z,97217.26
2022-11-25T03:53:16.740Z,97220.19
2022-11-25T03:55:47.476Z,97224.20
2022-11-25T03:58:17.114Z,97227.16
2022-11-25T04:00:44.763Z,97220.26
2022-11-25T04:03:13.263Z,97224.79
2022-11-25T04:05:41.786Z,97224.79
2022-11-25T04:08:09.491Z,97234.89
2022-11-25T04:10:37.894Z,97225.58
2022-11-25T04:13:06.443Z,97234.09
2022-11-25T04:15:36.284Z,97234.36
2022-11-25T04:18:04.237Z,97235.70
2022-11-25T04:20:32.183Z,97242.08
2022-11-25T04:23:01.577Z,97241.78
2022-11-25T04:25:29.581Z,97237.25
2022-11-25T04:27:58.406Z,97243.36
2022-11-25T04:30:28.701Z,97242.57
2022-11-25T04:32:56.618Z,97248.95
2022-11-25T04:35:24.960Z,97251.61
2022-11-25T04:37:54.874Z,97252.90
2022-11-25T04:40:23.239Z,97263.00
2022-11-25T04:42:59.328Z,97264.60
2022-11-25T04:45:24.291Z,97271.80
2022-11-25T04:47:53.935Z,97268.59
2022-11-25T04:50:24.085Z,97267.80
2022-11-25T04:52:53.809Z,97275.80
2022-11-25T04:55:21.729Z,97278.23
2022-11-25T04:57:49.742Z,97276.92
2022-11-25T05:00:19.288Z,97296.09
2022-11-25T05:02:47.571Z,97290.52
2022-11-25T05:05:17.961Z,97297.96
2022-11-25T05:07:46.021Z,97284.47
2022-11-25T05:10:14.289Z,97295.00
2022-11-25T05:12:44.135Z,97301.94
2022-11-25T05:15:30.315Z,97304.61
2022-11-25T05:17:58.899Z,97305.42
2022-11-25T05:20:28.580Z,97302.80
2022-11-25T05:22:56.224Z,97303.92
2022-11-25T05:25:24.331Z,97315.97
2022-11-25T05:27:53.976Z,97314.66
2022-11-25T05:30:21.641Z,97326.40
2022-11-25T05:32:49.189Z,97326.16
2022-11-25T05:35:16.907Z,97334.20
2022-11-25T05:37:45.007Z,97340.30
2022-11-25T05:40:13.846Z,97342.13
2022-11-25T05:42:55.724Z,97351.44
2022-11-25T05:45:23.747Z,97358.61
2022-11-25T05:47:51.763Z,97362.89
2022-11-25T05:50:21.406Z,97366.88
2022-11-25T05:52:50.763Z,97376.97
2022-11-25T05:55:18.679Z,97383.34
2022-11-25T05:57:48.286Z,97374.07
2022-11-25T06:00:16.655Z,97385.26
2022-11-25T06:02:51.147Z,97388.72
2022-11-25T06:05:19.768Z,97391.38
2022-11-25T06:07:48.137Z,97401.21
2022-11-25T06:10:17.823Z,97399.88
2022-11-25T06:12:45.677Z,97406.52
2022-11-25T06:15:15.271Z,97408.64
2022-11-25T06:17:43.284Z,97414.19
2022-11-25T06:20:16.169Z,97416.30
2022-11-25T06:22:43.857Z,97420.53
2022-11-25T06:25:14.579Z,97418.92
2022-11-25T06:28:11.489Z,97423.44
2022-11-25T06:30:13.760Z,97424.22
2022-11-25T06:32:43.338Z,97430.31
2022-11-25T06:35:13.223Z,97435.05
2022-11-25T06:37:43.175Z,97437.16
2022-11-25T06:40:11.609Z,97443.02
2022-11-25T06:42:41.930Z,97439.33
2022-11-25T06:45:10.586Z,97446.77
2022-11-25T06:47:38.660Z,97450.52
2022-11-25T06:50:07.943Z,97455.61
2022-11-25T06:52:37.196Z,97459.64
2022-11-25T06:55:06.031Z,97458.85
2022-11-25T06:57:34.453Z,97458.36
2022-11-25T07:00:03.294Z,97465.80
2022-11-25T07:02:36.164Z,97463.69
2022-11-25T07:05:01.024Z,97459.45
2022-11-25T07:07:29.161Z,97471.41
2022-11-25T07:09:57.875Z,97472.46
2022-11-25T07:12:30.059Z,97476.20
2022-11-25T07:14:59.274Z,97483.38
2022-11-25T07:17:27.590Z,97483.42
2022-11-25T07:19:55.495Z,97490.08
2022-11-25T07:22:23.341Z,97490.87
2022-11-25T07:24:51.442Z,97498.84
2022-11-25T07:27:19.539Z,97495.14
2022-11-25T07:30:18.851Z,97496.98
2022-11-25T07:32:18.557Z,97498.84
2022-11-25T07:34:46.382Z,97503.87
2022-11-25T07:37:14.449Z,97498.55
2022-11-25T07:39:43.676Z,97496.14
2022-11-25T07:42:11.843Z,97495.88
2022-11-25T07:44:49.657Z,97500.11
2022-11-25T07:47:25.742Z,97507.27
2022-11-25T07:49:57.656Z,97512.04
2022-11-25T07:52:30.567Z,97515.53
2022-11-25T07:54:59.392Z,97525.88
2022-11-25T07:57:36.521Z,97524.83
2022-11-25T08:00:08.388Z,97531.73
2022-11-25T08:02:42.365Z,97533.59
2022-11-25T08:05:13.613Z,97526.37
2022-11-25T08:07:42.659Z,97529.81
2022-11-25T08:10:11.304Z,97536.75
2022-11-25T08:12:41.087Z,97539.13
2022-11-25T08:15:10.936Z,97552.70
2022-11-25T08:17:40.569Z,97559.06
2022-11-25T08:20:09.461Z,97561.14
2022-11-25T08:22:37.584Z,97571.18
2022-11-25T08:25:06.749Z,97567.06
2022-11-25T08:27:34.466Z,97570.84
2022-11-25T08:30:02.386Z,97579.66
2022-11-25T08:32:30.494Z,97575.45
2022-11-25T08:34:59.485Z,97573.54
2022-11-25T08:37:27.315Z,97575.86
2022-11-25T08:39:56.113Z,97577.66
2022-11-25T08:42:24.473Z,97581.86
2022-11-25T08:44:55.417Z,97578.69
2022-11-25T08:47:25.092Z,97575.80
2022-11-25T08:49:55.304Z,97592.91
2022-11-25T08:52:25.943Z,97594.63
2022-11-25T08:54:55.101Z,97599.88
2022-11-25T08:57:23.324Z,97601.87
2022-11-25T08:59:53.945Z,97607.63
2022-11-25T09:02:24.534Z,97615.01
2022-11-25T09:04:53.896Z,97615.42
2022-11-25T09:07:26.095Z,97618.51
2022-11-25T09:09:53.414Z,97616.48
2022-11-25T09:12:28.575Z,97620.53
2022-11-25T09:15:08.191Z,97617.05
2022-11-25T09:17:48.910Z,97607.89
2022-11-25T09:20:20.740Z,97605.11
2022-11-25T09:22:48.541Z,97608.77
2022-11-25T09:25:25.519Z,97606.26
2022-11-25T09:27:53.791Z,97609.92
2022-11-25T09:30:22.181Z,97614.89
2022-11-25T09:32:54.351Z,97609.27
2022-11-25T09:35:24.116Z,97609.30
2022-11-25T09:37:54.218Z,97611.36
2022-11-25T09:40:30.641Z,97612.43
2022-11-25T09:43:37.953Z,97621.42
2022-11-25T09:46:43.450Z,97614.38
2022-11-25T09:49:58.056Z,97616.59
2022-11-25T09:52:48.992Z,97616.16
2022-11-25T09:55:23.650Z,97615.22
2022-11-25T09:58:12.594Z,97615.89
2022-11-25T10:00:44.499Z,97619.39
2022-11-25T10:03:42.431Z,97614.22
2022-11-25T10:06:28.173Z,97612.01
2022-11-25T10:09:07.992Z,97621.39
2022-11-25T10:12:07.609Z,97628.37
2022-11-25T10:14:40.999Z,97623.61
2022-11-25T10:17:44.372Z,97620.98
2022-11-25T10:20:25.463Z,97621.78
2022-11-25T10:23:19.759Z,97619.92
2022-11-25T10:26:03.026Z,97621.54
2022-11-25T10:28:41.264Z,97630.58
2022-11-25T10:31:41.036Z,97627.67
2022-11-25T10:34:48.368Z,97623.44
2022-11-25T10:37:33.217Z,97627.42
2022-11-25T10:40:01.514Z,97626.89
2022-11-25T10:42:31.890Z,97630.87
2022-11-25T10:45:01.501Z,97629.80
2022-11-25T10:47:50.063Z,97633.59
2022-11-25T10:50:51.651Z,97633.66
2022-11-25T10:53:26.874Z,97633.92
2022-11-25T10:56:03.925Z,97628.10
2022-11-25T10:58:38.214Z,97640.63
2022-11-25T11:01:22.482Z,97643.59
2022-11-25T11:04:07.368Z,97649.20
2022-11-25T11:06:43.727Z,97644.68
2022-11-25T11:09:37.582Z,97649.22
2022-11-25T11:12:27.105Z,97650.59
2022-11-25T11:15:16.693Z,97644.48
2022-11-25T11:17:44.543Z,97654.09
2022-11-25T11:20:25.529Z,97661.78
2022-11-25T11:23:08.928Z,97658.08
2022-11-25T11:25:38.000Z,97661.00
2022-11-25T11:28:34.437Z,97660.25
2022-11-25T11:31:10.021Z,97664.78
2022-11-25T11:34:01.770Z,97663.20
2022-11-25T11:37:11.594Z,97666.40
2022-11-25T11:40:25.001Z,97668.80
2022-11-25T11:43:45.869Z,97663.23
2022-11-25T11:46:34.615Z,97672.26
2022-11-25T11:49:37.722Z,97675.74
2022-11-25T11:52:38.652Z,97668.81
2022-11-25T11:55:26.977Z,97670.14
2022-11-25T11:58:12.600Z,97681.03
2022-11-25T12:00:58.346Z,97684.52
2022-11-25T12:03:34.380Z,97681.31
2022-11-25T12:06:05.993Z,97682.14
2022-11-25T12:08:42.196Z,97681.61
2022-11-25T12:11:18.684Z,97686.92
2022-11-25T12:14:15.390Z,97682.39
2022-11-25T12:16:55.056Z,97689.58
2022-11-25T12:19:43.227Z,97691.67
2022-11-25T12:22:25.306Z,97670.42
2022-11-25T12:25:01.587Z,97687.97
2022-11-25T12:27:56.380Z,97686.92
2022-11-25T12:30:32.482Z,97692.78
2022-11-25T12:33:13.433Z,97686.67
2022-11-25T12:36:14.287Z,97693.57
2022-11-25T12:38:56.382Z,97691.70
2022-11-25T12:41:43.723Z,97694.11
2022-11-25T12:44:32.109Z,97693.86
2022-11-25T12:47:01.378Z,97692.78
2022-11-25T12:49:32.705Z,97701.30
2022-11-25T12:52:23.824Z,97702.91
2022-11-25T12:55:23.858Z,97708.20
2022-11-25T12:58:23.177Z,97713.27
2022-11-25T13:01:11.406Z,97714.08
2022-11-25T13:04:10.353Z,97714.63
2022-11-25T13:07:00.320Z,97719.14
2022-11-25T13:09:56.341Z,97721.03
2022-11-25T13:12:52.909Z,97725.81
2022-11-25T13:15:29.290Z,97721.02
2022-11-25T13:18:02.344Z,97720.26
2022-11-25T13:20:35.779Z,97720.78
2022-11-25T13:23:14.625Z,97728.76
2022-11-25T13:25:45.836Z,97735.69
2022-11-25T13:28:37.877Z,97733.53
2022-11-25T13:31:27.081Z,97730.37
2022-11-25T13:34:08.741Z,97734.33
2022-11-25T13:36:55.459Z,97746.05
2022-11-25T13:39:34.849Z,97745.25
2022-11-25T13:42:22.824Z,97743.66
2022-11-25T13:44:58.756Z,97748.44
2022-11-25T13:47:48.545Z,97750.55
2022-11-25T13:50:22.644Z,97756.95
2022-11-25T13:53:17.767Z,97762.51
2022-11-25T13:55:45.961Z,97760.67
2022-11-25T13:58:24.656Z,97766.50
2022-11-25T14:01:27.979Z,97772.34
2022-11-25T14:03:56.912Z,97766.78
2022-11-25T14:06:48.152Z,97778.48
2022-11-25T14:09:49.966Z,97777.41
2022-11-25T14:12:58.902Z,97781.41
2022-11-25T14:15:36.374Z,97779.27
2022-11-25T14:18:36.857Z,97787.23
2022-11-25T14:21:08.653Z,97789.09
2022-11-25T14:23:45.804Z,97790.16
2022-11-25T14:26:50.233Z,97788.30
2022-11-25T14:29:17.478Z,97783.27
2022-11-25T14:31:52.939Z,97788.30
2022-11-25T14:34:40.473Z,97787.51
2022-11-25T14:37:31.901Z,97791.23
2022-11-25T14:40:07.938Z,97795.22
2022-11-25T14:42:41.775Z,97802.66
2022-11-25T14:45:29.327Z,97792.03
2022-11-25T14:47:57.697Z,97796.81
2022-11-25T14:50:34.866Z,97797.34
2022-11-25T14:52:56.820Z,97792.82
2022-11-25T14:55:30.371Z,97795.22
2022-11-25T14:57:59.286Z,97803.44
2022-11-25T15:00:27.396Z,97802.64
2022-11-25T15:03:01.999Z,97803.17
2022-11-25T15:05:48.422Z,97809.30
2022-11-25T15:09:05.406Z,97803.16
2022-11-25T15:12:00.789Z,97808.50
2022-11-25T15:14:36.089Z,97811.68
2022-11-25T15:20:53.091Z,97810.89
2022-11-25T15:21:10.658Z,97816.45
2022-11-25T15:23:40.732Z,97818.30
2022-11-25T15:26:26.662Z,97817.52
2022-11-25T15:29:01.719Z,97814.05
2022-11-25T15:31:33.504Z,97816.44
2022-11-25T15:34:14.050Z,97821.75
2022-11-25T15:36:41.977Z,97817.77
2022-11-25T15:39:27.284Z,97820.42
2022-11-25T15:42:18.091Z,97816.70
2022-11-25T15:44:53.139Z,97818.56
2022-11-25T15:47:32.060Z,97809.00
2022-11-25T15:50:25.539Z,97815.39
2022-11-25T15:52:57.137Z,97815.63
2022-11-25T15:55:39.354Z,97817.25
2022-11-25T15:58:17.668Z,97822.28
2022-11-25T16:01:08.802Z,97818.83
2022-11-25T16:03:36.675Z,97815.91
2022-11-25T16:06:30.773Z,97826.80
2022-11-25T16:09:02.688Z,97823.60
2022-11-25T16:11:36.828Z,97820.95
2022-11-25T16:14:28.443Z,97822.81
2022-11-25T16:17:06.293Z,97828.38
2022-11-25T16:19:45.534Z,97832.89
2022-11-25T16:22:17.438Z,97832.36
2022-11-25T16:25:01.834Z,97837.37
2022-11-25T16:27:28.040Z,97836.06
2022-11-25T16:30:08.097Z,97842.69
2022-11-25T16:32:43.365Z,97840.55
2022-11-25T16:35:17.866Z,97846.67
2022-11-25T16:37:49.197Z,97847.97
2022-11-25T16:40:16.698Z,97847.43
2022-11-25T16:42:50.177Z,97855.11
2022-11-25T16:45:21.679Z,97856.69
2022-11-25T16:47:49.863Z,97856.95
2022-11-25T16:50:20.488Z,97855.88
2022-11-25T16:52:49.416Z,97855.61
2022-11-25T16:55:17.924Z,97862.25
2022-11-25T16:57:46.040Z,97860.14
2022-11-25T17:00:16.461Z,97866.52
2022-11-25T17:02:45.213Z,97866.27
2022-11-25T17:05:23.941Z,97865.44
2022-11-25T17:07:52.067Z,97868.09
2022-11-25T17:10:21.021Z,97869.42
2022-11-25T17:12:49.953Z,97862.80
2022-11-25T17:15:23.856Z,97859.33
2022-11-25T17:17:51.781Z,97870.47
2022-11-25T17:20:30.671Z,97872.56
2022-11-25T17:22:58.863Z,97871.23
2022-11-25T17:25:32.278Z,97875.21
2022-11-25T17:28:00.533Z,97878.13
2022-11-25T17:30:28.658Z,97877.58
2022-11-25T17:33:03.882Z,97878.36
2022-11-25T17:35:31.401Z,97878.07
2022-11-25T17:38:01.456Z,97874.60
2022-11-25T17:40:29.267Z,97877.80
2022-11-25T17:42:57.309Z,97883.32
2022-11-25T17:45:28.790Z,97876.16
2022-11-25T17:47:56.739Z,97878.81
2022-11-25T17:50:25.791Z,97882.51
2022-11-25T17:52:55.633Z,97886.73
2022-11-25T17:55:23.518Z,97885.41
2022-11-25T17:57:51.581Z,97881.64
2022-11-25T18:00:21.712Z,97880.33
2022-11-25T18:02:50.707Z,97885.08
2022-11-25T18:05:28.368Z,97887.70
2022-11-25T18:08:00.027Z,97884.25
2022-11-25T18:10:27.875Z,97886.33
2022-11-25T18:12:57.013Z,97893.46
2022-11-25T18:15:34.193Z,97895.56
2022-11-25T18:18:05.967Z,97895.54
2022-11-25T18:20:33.968Z,97896.02
2022-11-25T18:23:01.959Z,97893.83
2022-11-25T18:25:32.729Z,97893.81
2022-11-25T18:28:01.849Z,97890.30
2022-11-25T18:30:35.504Z,97895.81
2022-11-25T18:33:05.305Z,97892.07
2022-11-25T18:35:36.390Z,97896.25
2022-11-25T18:38:04.568Z,97895.09
2022-11-25T18:40:35.499Z,97894.19
2022-11-25T18:43:04.608Z,97898.13
2022-11-25T18:45:38.343Z,97905.77
2022-11-25T18:48:23.949Z,97910.23
2022-11-25T18:50:55.520Z,97909.14
2022-11-25T18:53:23.746Z,97911.00
2022-11-25T18:55:51.741Z,97917.59
2022-11-25T18:58:26.697Z,97919.73
2022-11-25T19:01:04.971Z,97916.52
2022-11-25T19:03:32.926Z,97918.61
2022-11-25T19:06:02.476Z,97917.77
2022-11-25T19:08:30.493Z,97923.33
2022-11-25T19:10:59.526Z,97925.71
2022-11-25T19:13:34.164Z,97928.06
2022-11-25T19:16:08.362Z,97929.61
2022-11-25T19:18:36.136Z,97935.44
2022-11-25T19:21:04.051Z,97933.84
2022-11-25T19:23:33.868Z,97938.34
2022-11-25T19:26:07.065Z,97937.55
2022-11-25T19:28:35.130Z,97933.27
2022-11-25T19:31:05.013Z,97936.18
2022-11-25T19:33:40.265Z,97936.94
2022-11-25T19:36:13.774Z,97938.52
2022-11-25T19:38:41.561Z,97941.70
2022-11-25T19:41:09.259Z,97947.26
2022-11-25T19:43:37.166Z,97945.98
2022-11-25T19:46:05.276Z,97949.45
2022-11-25T19:48:39.203Z,97952.16
2022-11-25T19:51:09.096Z,97962.30
2022-11-25T19:53:36.949Z,97966.31
2022-11-25T19:56:06.701Z,97967.94
2022-11-25T19:58:34.449Z,97966.39
2022-11-25T20:01:05.811Z,97966.43
2022-11-25T20:03:36.235Z,97966.48
2022-11-25T20:06:05.428Z,97971.28
2022-11-25T20:08:33.159Z,97966.81
2022-11-25T20:11:01.072Z,97962.61
2022-11-25T20:13:28.922Z,97969.73
2022-11-25T20:15:58.507Z,97968.67
2022-11-25T20:18:27.391Z,97967.30
2022-11-25T20:21:04.759Z,97970.18
2022-11-25T20:23:43.634Z,97976.76
2022-11-25T20:26:20.315Z,97975.89
2022-11-25T20:28:48.115Z,97983.25
2022-11-25T20:31:15.891Z,97985.83
2022-11-25T20:33:43.597Z,97989.80
2022-11-25T20:36:15.835Z,97987.45
2022-11-25T20:38:52.341Z,97989.84
2022-11-25T20:41:27.489Z,97987.77
2022-11-25T20:43:51.897Z,98001.83
2022-11-25T20:46:23.410Z,97991.73
2022-11-25T20:48:54.059Z,97994.69
2022-11-25T20:51:23.394Z,97989.09
2022-11-25T20:53:57.018Z,97992.80
2022-11-25T20:56:27.263Z,97993.06
2022-11-25T20:58:56.313Z,97997.08
2022-11-25T21:01:24.621Z,97998.70
2022-11-25T21:03:52.245Z,98002.41
2022-11-25T21:06:30.259Z,97994.99
2022-11-25T21:09:01.169Z,98000.03
2022-11-25T21:11:30.942Z,98011.98
2022-11-25T21:13:58.784Z,98016.80
2022-11-25T21:16:27.047Z,98011.51
2022-11-25T21:18:55.418Z,98018.70
2022-11-25T21:21:33.290Z,98012.91
2022-11-25T21:24:06.467Z,98014.27
2022-11-25T21:26:34.837Z,98030.17
2022-11-25T21:29:02.841Z,98026.51
2022-11-25T21:31:30.647Z,98028.66
2022-11-25T21:34:00.294Z,98027.07
2022-11-25T21:36:30.679Z,98039.27
2022-11-25T21:39:04.748Z,98034.75
2022-11-25T21:41:34.200Z,98042.66
2022-11-25T21:44:05.712Z,98045.58
2022-11-25T21:46:34.256Z,98052.52
2022-11-25T21:49:02.532Z,98055.20
2022-11-25T21:51:30.198Z,98055.77
2022-11-25T21:53:58.046Z,98058.20
2022-11-25T21:56:31.626Z,98062.48
2022-11-25T21:59:02.708Z,98058.02
2022-11-25T22:01:31.046Z,98060.44
2022-11-25T22:03:59.153Z,98062.03
2022-11-25T22:06:30.207Z,98062.30
2022-11-25T22:08:58.120Z,98058.62
2022-11-25T22:11:36.640Z,98061.58
2022-11-25T22:14:09.671Z,98063.97
2022-11-25T22:16:37.490Z,98065.55
2022-11-25T22:19:05.783Z,98066.61
2022-11-25T22:21:33.518Z,98069.53
2022-11-25T22:24:01.006Z,98071.69
2022-11-25T22:26:31.933Z,98074.34
2022-11-25T22:29:00.650Z,98075.89
2022-11-25T22:31:28.552Z,98078.28
2022-11-25T22:33:56.298Z,98078.01
2022-11-25T22:36:36.907Z,98077.18
2022-11-25T22:39:18.998Z,98074.75
2022-11-25T22:41:50.838Z,98072.89
2022-11-25T22:44:23.397Z,98083.50
2022-11-25T22:46:51.960Z,98083.80
2022-11-25T22:49:33.978Z,98079.30
2022-11-25T22:52:01.910Z,98081.64
2022-11-25T22:54:29.903Z,98076.56
2022-11-25T22:56:57.870Z,98077.32
2022-11-25T22:59:25.544Z,98085.54
2022-11-25T23:01:53.370Z,98094.86
2022-11-25T23:04:21.355Z,98093.84
2022-11-25T23:06:49.429Z,98094.90
2022-11-25T23:09:20.203Z,98095.73
2022-11-25T23:11:49.085Z,98092.36
2022-11-25T23:14:17.840Z,98091.30
2022-11-25T23:16:46.143Z,98100.89
2022-11-25T23:19:17.357Z,98099.30
2022-11-25T23:21:45.842Z,98097.48
2022-11-25T23:24:16.568Z,98096.77
2022-11-25T23:26:44.551Z,98094.68
2022-11-25T23:29:12.210Z,98094.45
2022-11-25T23:31:40.157Z,98096.34
2022-11-25T23:34:10.100Z,98096.64
2022-11-25T23:36:45.247Z,98103.28
2022-11-25T23:39:22.840Z,98101.19
2022-11-25T23:41:51.145Z,98103.87
2022-11-25T23:44:29.114Z,98106.80
2022-11-25T23:47:01.135Z,98107.33
2022-11-25T23:49:33.831Z,98105.66
2022-11-25T23:52:07.738Z,98109.60
2022-11-25T23:54:41.899Z,98100.52
2022-11-25T23:57:18.931Z,98100.44
2022-11-25T23:59:47.848Z,98099.30
